sensor_id;sensor_type;location;lat;lon;timestamp;P1;durP1;ratioP1;P2;durP2;ratioP2
4808;SDS011;2418;49.930;8.606;2023-01-29T00:01:30;5.90;;;5.30;;
4808;SDS011;2418;49.930;8.606;2023-01-29T00:03:56;5.10;;;4.80;;
4808;SDS011;2418;49.930;8.606;2023-01-29T00:06:22;6.30;;;5.90;;
4808;SDS011;2418;49.930;8.606;2023-01-29T00:08:48;5.70;;;5.40;;
4808;SDS011;2418;49.930;8.606;2023-01-29T00:11:15;5.97;;;5.68;;
4808;SDS011;2418;49.930;8.606;2023-01-29T00:13:41;5.70;;;5.40;;
4808;SDS011;2418;49.930;8.606;2023-01-29T00:16:07;6.47;;;5.90;;
4808;SDS011;2418;49.930;8.606;2023-01-29T00:18:36;6.20;;;5.90;;
4808;SDS011;2418;49.930;8.606;2023-01-29T00:21:06;6.53;;;5.93;;
4808;SDS011;2418;49.930;8.606;2023-01-29T00:23:32;5.30;;;5.20;;
4808;SDS011;2418;49.930;8.606;2023-01-29T00:25:59;6.68;;;5.97;;
4808;SDS011;2418;49.930;8.606;2023-01-29T00:28:24;10.37;;;6.03;;
4808;SDS011;2418;49.930;8.606;2023-01-29T00:30:50;5.30;;;5.00;;
4808;SDS011;2418;49.930;8.606;2023-01-29T00:33:18;6.50;;;5.90;;
4808;SDS011;2418;49.930;8.606;2023-01-29T00:35:44;6.00;;;5.70;;
4808;SDS011;2418;49.930;8.606;2023-01-29T00:38:10;7.00;;;6.40;;
4808;SDS011;2418;49.930;8.606;2023-01-29T00:40:37;6.80;;;6.30;;
4808;SDS011;2418;49.930;8.606;2023-01-29T00:43:33;7.13;;;6.63;;
4808;SDS011;2418;49.930;8.606;2023-01-29T00:46:17;7.10;;;6.35;;
4808;SDS011;2418;49.930;8.606;2023-01-29T00:48:43;6.35;;;5.85;;
4808;SDS011;2418;49.930;8.606;2023-01-29T00:51:09;6.60;;;6.13;;
4808;SDS011;2418;49.930;8.606;2023-01-29T00:53:35;6.05;;;5.75;;
4808;SDS011;2418;49.930;8.606;2023-01-29T00:56:01;7.13;;;6.55;;
4808;SDS011;2418;49.930;8.606;2023-01-29T00:58:27;5.97;;;5.67;;
4808;SDS011;2418;49.930;8.606;2023-01-29T01:00:58;8.95;;;6.22;;
4808;SDS011;2418;49.930;8.606;2023-01-29T01:03:25;6.78;;;6.38;;
4808;SDS011;2418;49.930;8.606;2023-01-29T01:06:01;6.25;;;5.93;;
4808;SDS011;2418;49.930;8.606;2023-01-29T01:08:27;6.47;;;6.05;;
4808;SDS011;2418;49.930;8.606;2023-01-29T01:11:11;7.23;;;6.63;;
4808;SDS011;2418;49.930;8.606;2023-01-29T01:13:37;7.60;;;6.70;;
4808;SDS011;2418;49.930;8.606;2023-01-29T01:16:07;7.18;;;6.68;;
4808;SDS011;2418;49.930;8.606;2023-01-29T01:18:33;7.35;;;6.85;;
4808;SDS011;2418;49.930;8.606;2023-01-29T01:21:00;9.38;;;7.10;;
4808;SDS011;2418;49.930;8.606;2023-01-29T01:23:26;6.40;;;5.90;;
4808;SDS011;2418;49.930;8.606;2023-01-29T01:25:52;7.57;;;6.97;;
4808;SDS011;2418;49.930;8.606;2023-01-29T01:28:19;7.00;;;6.50;;
4808;SDS011;2418;49.930;8.606;2023-01-29T01:30:45;7.00;;;6.50;;
4808;SDS011;2418;49.930;8.606;2023-01-29T01:33:11;6.22;;;5.93;;
4808;SDS011;2418;49.930;8.606;2023-01-29T01:35:37;7.13;;;6.53;;
4808;SDS011;2418;49.930;8.606;2023-01-29T01:38:03;7.05;;;6.60;;
4808;SDS011;2418;49.930;8.606;2023-01-29T01:40:29;6.80;;;6.40;;
4808;SDS011;2418;49.930;8.606;2023-01-29T01:42:56;7.15;;;6.53;;
4808;SDS011;2418;49.930;8.606;2023-01-29T01:47:59;7.22;;;6.45;;
4808;SDS011;2418;49.930;8.606;2023-01-29T01:50:32;7.00;;;6.50;;
4808;SDS011;2418;49.930;8.606;2023-01-29T01:53:06;6.38;;;5.97;;
4808;SDS011;2418;49.930;8.606;2023-01-29T01:55:34;6.97;;;6.38;;
4808;SDS011;2418;49.930;8.606;2023-01-29T01:58:05;6.40;;;5.80;;
4808;SDS011;2418;49.930;8.606;2023-01-29T02:00:32;6.00;;;5.65;;
4808;SDS011;2418;49.930;8.606;2023-01-29T02:02:58;6.20;;;5.90;;
4808;SDS011;2418;49.930;8.606;2023-01-29T02:05:44;6.30;;;5.90;;
4808;SDS011;2418;49.930;8.606;2023-01-29T02:08:35;6.40;;;6.00;;
4808;SDS011;2418;49.930;8.606;2023-01-29T02:11:23;7.20;;;6.60;;
4808;SDS011;2418;49.930;8.606;2023-01-29T02:13:49;6.78;;;6.25;;
4808;SDS011;2418;49.930;8.606;2023-01-29T02:16:18;6.95;;;6.60;;
4808;SDS011;2418;49.930;8.606;2023-01-29T02:18:44;8.37;;;7.53;;
4808;SDS011;2418;49.930;8.606;2023-01-29T02:21:25;7.72;;;7.22;;
4808;SDS011;2418;49.930;8.606;2023-01-29T02:29:33;8.57;;;7.97;;
4808;SDS011;2418;49.930;8.606;2023-01-29T02:32:04;9.23;;;7.88;;
4808;SDS011;2418;49.930;8.606;2023-01-29T02:37:20;8.45;;;7.45;;
4808;SDS011;2418;49.930;8.606;2023-01-29T02:40:00;8.38;;;7.45;;
4808;SDS011;2418;49.930;8.606;2023-01-29T02:42:31;8.45;;;7.65;;
4808;SDS011;2418;49.930;8.606;2023-01-29T02:45:03;7.75;;;6.97;;
4808;SDS011;2418;49.930;8.606;2023-01-29T02:47:44;7.00;;;6.50;;
4808;SDS011;2418;49.930;8.606;2023-01-29T02:50:14;7.50;;;6.90;;
4808;SDS011;2418;49.930;8.606;2023-01-29T02:52:49;8.55;;;7.90;;
4808;SDS011;2418;49.930;8.606;2023-01-29T02:58:08;8.68;;;7.97;;
4808;SDS011;2418;49.930;8.606;2023-01-29T03:00:42;9.07;;;8.27;;
4808;SDS011;2418;49.930;8.606;2023-01-29T03:03:24;9.05;;;8.35;;
4808;SDS011;2418;49.930;8.606;2023-01-29T03:05:59;8.80;;;8.00;;
4808;SDS011;2418;49.930;8.606;2023-01-29T03:08:42;9.30;;;8.50;;
4808;SDS011;2418;49.930;8.606;2023-01-29T03:11:14;8.57;;;7.75;;
4808;SDS011;2418;49.930;8.606;2023-01-29T03:13:48;8.65;;;7.85;;
4808;SDS011;2418;49.930;8.606;2023-01-29T03:18:45;8.38;;;7.70;;
4808;SDS011;2418;49.930;8.606;2023-01-29T03:21:16;9.20;;;8.50;;
4808;SDS011;2418;49.930;8.606;2023-01-29T03:24:02;8.63;;;8.00;;
4808;SDS011;2418;49.930;8.606;2023-01-29T03:26:49;8.13;;;7.50;;
4808;SDS011;2418;49.930;8.606;2023-01-29T03:29:34;8.13;;;7.32;;
4808;SDS011;2418;49.930;8.606;2023-01-29T03:32:20;7.35;;;6.80;;
4808;SDS011;2418;49.930;8.606;2023-01-29T03:34:47;7.57;;;7.10;;
4808;SDS011;2418;49.930;8.606;2023-01-29T03:39:58;7.20;;;6.60;;
4808;SDS011;2418;49.930;8.606;2023-01-29T03:42:32;7.70;;;7.20;;
4808;SDS011;2418;49.930;8.606;2023-01-29T03:45:13;7.22;;;6.53;;
4808;SDS011;2418;49.930;8.606;2023-01-29T03:53:03;6.78;;;6.32;;
4808;SDS011;2418;49.930;8.606;2023-01-29T03:57:58;6.90;;;6.20;;
4808;SDS011;2418;49.930;8.606;2023-01-29T04:03:10;8.93;;;8.23;;
4808;SDS011;2418;49.930;8.606;2023-01-29T04:05:45;7.90;;;7.20;;
4808;SDS011;2418;49.930;8.606;2023-01-29T04:08:14;7.50;;;7.00;;
4808;SDS011;2418;49.930;8.606;2023-01-29T04:10:41;8.00;;;7.45;;
4808;SDS011;2418;49.930;8.606;2023-01-29T04:13:10;9.15;;;8.55;;
4808;SDS011;2418;49.930;8.606;2023-01-29T04:15:42;7.80;;;7.38;;
4808;SDS011;2418;49.930;8.606;2023-01-29T04:18:08;8.23;;;7.60;;
4808;SDS011;2418;49.930;8.606;2023-01-29T04:20:34;11.00;;;7.90;;
4808;SDS011;2418;49.930;8.606;2023-01-29T04:23:01;8.20;;;7.40;;
4808;SDS011;2418;49.930;8.606;2023-01-29T04:25:28;8.33;;;7.73;;
4808;SDS011;2418;49.930;8.606;2023-01-29T04:30:27;7.30;;;6.80;;
4808;SDS011;2418;49.930;8.606;2023-01-29T04:38:07;7.30;;;6.70;;
4808;SDS011;2418;49.930;8.606;2023-01-29T04:40:39;8.10;;;7.30;;
4808;SDS011;2418;49.930;8.606;2023-01-29T04:43:18;7.00;;;6.70;;
4808;SDS011;2418;49.930;8.606;2023-01-29T04:50:51;8.60;;;8.00;;
4808;SDS011;2418;49.930;8.606;2023-01-29T04:53:25;8.00;;;7.47;;
4808;SDS011;2418;49.930;8.606;2023-01-29T04:55:56;7.50;;;7.10;;
4808;SDS011;2418;49.930;8.606;2023-01-29T04:58:39;8.07;;;7.38;;
4808;SDS011;2418;49.930;8.606;2023-01-29T05:01:09;7.60;;;6.90;;
4808;SDS011;2418;49.930;8.606;2023-01-29T05:03:36;8.20;;;7.40;;
4808;SDS011;2418;49.930;8.606;2023-01-29T05:06:04;7.65;;;7.15;;
4808;SDS011;2418;49.930;8.606;2023-01-29T05:08:31;7.80;;;7.20;;
4808;SDS011;2418;49.930;8.606;2023-01-29T05:10:58;9.27;;;8.45;;
4808;SDS011;2418;49.930;8.606;2023-01-29T05:13:24;8.00;;;7.50;;
4808;SDS011;2418;49.930;8.606;2023-01-29T05:15:53;7.93;;;7.25;;
4808;SDS011;2418;49.930;8.606;2023-01-29T05:18:21;7.20;;;6.60;;
4808;SDS011;2418;49.930;8.606;2023-01-29T05:20:47;7.40;;;6.80;;
4808;SDS011;2418;49.930;8.606;2023-01-29T05:23:16;8.35;;;7.55;;
4808;SDS011;2418;49.930;8.606;2023-01-29T05:25:43;8.60;;;8.00;;
4808;SDS011;2418;49.930;8.606;2023-01-29T05:28:09;7.97;;;7.47;;
4808;SDS011;2418;49.930;8.606;2023-01-29T05:30:44;8.65;;;8.05;;
4808;SDS011;2418;49.930;8.606;2023-01-29T05:33:12;7.63;;;7.18;;
4808;SDS011;2418;49.930;8.606;2023-01-29T05:35:38;6.70;;;6.30;;
4808;SDS011;2418;49.930;8.606;2023-01-29T05:38:04;5.67;;;5.47;;
4808;SDS011;2418;49.930;8.606;2023-01-29T05:40:30;6.70;;;6.10;;
4808;SDS011;2418;49.930;8.606;2023-01-29T05:42:56;7.13;;;6.53;;
4808;SDS011;2418;49.930;8.606;2023-01-29T05:45:22;7.20;;;6.90;;
4808;SDS011;2418;49.930;8.606;2023-01-29T05:47:48;7.35;;;6.68;;
4808;SDS011;2418;49.930;8.606;2023-01-29T05:50:14;7.55;;;6.97;;
4808;SDS011;2418;49.930;8.606;2023-01-29T05:52:40;7.40;;;7.00;;
4808;SDS011;2418;49.930;8.606;2023-01-29T05:55:06;6.70;;;6.30;;
4808;SDS011;2418;49.930;8.606;2023-01-29T05:57:33;6.63;;;6.13;;
4808;SDS011;2418;49.930;8.606;2023-01-29T05:59:59;8.43;;;7.63;;
4808;SDS011;2418;49.930;8.606;2023-01-29T06:02:27;5.97;;;5.57;;
4808;SDS011;2418;49.930;8.606;2023-01-29T06:04:53;6.25;;;5.78;;
4808;SDS011;2418;49.930;8.606;2023-01-29T06:07:19;5.55;;;5.35;;
4808;SDS011;2418;49.930;8.606;2023-01-29T06:09:45;6.40;;;5.90;;
4808;SDS011;2418;49.930;8.606;2023-01-29T06:12:11;6.05;;;5.75;;
4808;SDS011;2418;49.930;8.606;2023-01-29T06:14:37;7.70;;;7.20;;
4808;SDS011;2418;49.930;8.606;2023-01-29T06:17:03;6.80;;;6.50;;
4808;SDS011;2418;49.930;8.606;2023-01-29T06:19:29;5.40;;;5.10;;
4808;SDS011;2418;49.930;8.606;2023-01-29T06:21:55;5.95;;;5.47;;
4808;SDS011;2418;49.930;8.606;2023-01-29T06:24:21;5.95;;;5.72;;
4808;SDS011;2418;49.930;8.606;2023-01-29T06:26:47;10.50;;;8.00;;
4808;SDS011;2418;49.930;8.606;2023-01-29T06:29:13;8.20;;;7.50;;
4808;SDS011;2418;49.930;8.606;2023-01-29T06:31:39;7.38;;;6.88;;
4808;SDS011;2418;49.930;8.606;2023-01-29T06:34:08;7.22;;;6.75;;
4808;SDS011;2418;49.930;8.606;2023-01-29T06:36:34;7.03;;;6.38;;
4808;SDS011;2418;49.930;8.606;2023-01-29T06:39:00;8.32;;;7.72;;
4808;SDS011;2418;49.930;8.606;2023-01-29T06:41:26;10.20;;;8.52;;
4808;SDS011;2418;49.930;8.606;2023-01-29T06:43:52;9.00;;;8.30;;
4808;SDS011;2418;49.930;8.606;2023-01-29T06:46:18;10.40;;;9.50;;
4808;SDS011;2418;49.930;8.606;2023-01-29T06:48:44;9.25;;;8.55;;
4808;SDS011;2418;49.930;8.606;2023-01-29T06:51:10;10.90;;;9.90;;
4808;SDS011;2418;49.930;8.606;2023-01-29T06:53:37;10.60;;;9.45;;
4808;SDS011;2418;49.930;8.606;2023-01-29T06:56:04;10.57;;;9.67;;
4808;SDS011;2418;49.930;8.606;2023-01-29T06:58:30;12.77;;;10.00;;
4808;SDS011;2418;49.930;8.606;2023-01-29T07:01:07;11.25;;;10.27;;
4808;SDS011;2418;49.930;8.606;2023-01-29T07:03:34;10.70;;;9.63;;
4808;SDS011;2418;49.930;8.606;2023-01-29T07:06:00;11.05;;;10.10;;
4808;SDS011;2418;49.930;8.606;2023-01-29T07:08:26;10.27;;;9.30;;
4808;SDS011;2418;49.930;8.606;2023-01-29T07:10:53;11.32;;;10.32;;
4808;SDS011;2418;49.930;8.606;2023-01-29T07:13:23;12.88;;;10.18;;
4808;SDS011;2418;49.930;8.606;2023-01-29T07:15:49;11.18;;;10.07;;
4808;SDS011;2418;49.930;8.606;2023-01-29T07:18:17;10.57;;;9.57;;
4808;SDS011;2418;49.930;8.606;2023-01-29T07:20:44;10.43;;;9.23;;
4808;SDS011;2418;49.930;8.606;2023-01-29T07:23:11;13.75;;;10.95;;
4808;SDS011;2418;49.930;8.606;2023-01-29T07:25:38;11.87;;;10.77;;
4808;SDS011;2418;49.930;8.606;2023-01-29T07:28:04;11.10;;;10.13;;
4808;SDS011;2418;49.930;8.606;2023-01-29T07:30:31;13.82;;;10.95;;
4808;SDS011;2418;49.930;8.606;2023-01-29T07:33:01;12.70;;;11.40;;
4808;SDS011;2418;49.930;8.606;2023-01-29T07:35:27;12.07;;;10.88;;
4808;SDS011;2418;49.930;8.606;2023-01-29T07:37:53;11.70;;;10.55;;
4808;SDS011;2418;49.930;8.606;2023-01-29T07:40:21;12.25;;;11.05;;
4808;SDS011;2418;49.930;8.606;2023-01-29T07:42:47;11.80;;;10.60;;
4808;SDS011;2418;49.930;8.606;2023-01-29T07:45:13;12.20;;;10.57;;
4808;SDS011;2418;49.930;8.606;2023-01-29T07:47:39;12.70;;;11.37;;
4808;SDS011;2418;49.930;8.606;2023-01-29T07:50:06;9.82;;;8.30;;
4808;SDS011;2418;49.930;8.606;2023-01-29T07:52:32;6.47;;;6.18;;
4808;SDS011;2418;49.930;8.606;2023-01-29T07:54:58;10.60;;;9.70;;
4808;SDS011;2418;49.930;8.606;2023-01-29T07:57:24;13.77;;;10.90;;
4808;SDS011;2418;49.930;8.606;2023-01-29T07:59:50;11.73;;;10.50;;
4808;SDS011;2418;49.930;8.606;2023-01-29T08:02:16;14.10;;;11.38;;
4808;SDS011;2418;49.930;8.606;2023-01-29T08:04:42;13.20;;;10.77;;
4808;SDS011;2418;49.930;8.606;2023-01-29T08:07:09;12.75;;;11.27;;
4808;SDS011;2418;49.930;8.606;2023-01-29T08:09:35;14.80;;;12.52;;
4808;SDS011;2418;49.930;8.606;2023-01-29T08:12:01;11.77;;;10.47;;
4808;SDS011;2418;49.930;8.606;2023-01-29T08:14:28;10.93;;;9.93;;
4808;SDS011;2418;49.930;8.606;2023-01-29T08:16:54;12.02;;;10.93;;
4808;SDS011;2418;49.930;8.606;2023-01-29T08:19:22;12.10;;;11.00;;
4808;SDS011;2418;49.930;8.606;2023-01-29T08:21:48;11.88;;;10.70;;
4808;SDS011;2418;49.930;8.606;2023-01-29T08:24:14;14.17;;;10.50;;
4808;SDS011;2418;49.930;8.606;2023-01-29T08:26:39;11.00;;;10.00;;
4808;SDS011;2418;49.930;8.606;2023-01-29T08:29:05;11.90;;;10.80;;
4808;SDS011;2418;49.930;8.606;2023-01-29T08:31:31;10.43;;;9.40;;
4808;SDS011;2418;49.930;8.606;2023-01-29T08:33:57;9.65;;;8.95;;
4808;SDS011;2418;49.930;8.606;2023-01-29T08:36:23;10.57;;;9.60;;
4808;SDS011;2418;49.930;8.606;2023-01-29T08:38:49;10.80;;;9.80;;
4808;SDS011;2418;49.930;8.606;2023-01-29T08:41:15;11.40;;;10.30;;
4808;SDS011;2418;49.930;8.606;2023-01-29T08:43:41;10.43;;;9.52;;
4808;SDS011;2418;49.930;8.606;2023-01-29T08:46:07;9.85;;;9.05;;
4808;SDS011;2418;49.930;8.606;2023-01-29T08:48:36;9.70;;;9.00;;
4808;SDS011;2418;49.930;8.606;2023-01-29T08:51:03;9.20;;;8.60;;
4808;SDS011;2418;49.930;8.606;2023-01-29T08:53:29;10.57;;;8.80;;
4808;SDS011;2418;49.930;8.606;2023-01-29T08:55:59;8.75;;;8.02;;
4808;SDS011;2418;49.930;8.606;2023-01-29T08:58:25;9.82;;;8.80;;
4808;SDS011;2418;49.930;8.606;2023-01-29T09:00:54;9.10;;;8.30;;
4808;SDS011;2418;49.930;8.606;2023-01-29T09:03:20;9.82;;;8.50;;
4808;SDS011;2418;49.930;8.606;2023-01-29T09:05:48;9.60;;;8.77;;
4808;SDS011;2418;49.930;8.606;2023-01-29T09:08:15;9.10;;;8.40;;
4808;SDS011;2418;49.930;8.606;2023-01-29T09:10:40;9.57;;;8.67;;
4808;SDS011;2418;49.930;8.606;2023-01-29T09:13:06;11.45;;;9.07;;
4808;SDS011;2418;49.930;8.606;2023-01-29T09:15:32;9.82;;;8.82;;
4808;SDS011;2418;49.930;8.606;2023-01-29T09:18:01;9.70;;;8.73;;
4808;SDS011;2418;49.930;8.606;2023-01-29T09:20:28;10.80;;;9.55;;
4808;SDS011;2418;49.930;8.606;2023-01-29T09:22:55;10.57;;;9.48;;
4808;SDS011;2418;49.930;8.606;2023-01-29T09:25:23;11.00;;;10.00;;
4808;SDS011;2418;49.930;8.606;2023-01-29T09:27:50;10.70;;;9.75;;
4808;SDS011;2418;49.930;8.606;2023-01-29T09:30:16;11.15;;;10.15;;
4808;SDS011;2418;49.930;8.606;2023-01-29T09:32:42;10.98;;;9.90;;
4808;SDS011;2418;49.930;8.606;2023-01-29T09:35:08;10.95;;;9.85;;
4808;SDS011;2418;49.930;8.606;2023-01-29T09:37:36;9.53;;;8.53;;
4808;SDS011;2418;49.930;8.606;2023-01-29T09:40:02;9.80;;;8.50;;
4808;SDS011;2418;49.930;8.606;2023-01-29T09:42:29;9.60;;;7.70;;
4808;SDS011;2418;49.930;8.606;2023-01-29T09:47:38;8.68;;;7.93;;
4808;SDS011;2418;49.930;8.606;2023-01-29T09:52:42;7.63;;;7.03;;
4808;SDS011;2418;49.930;8.606;2023-01-29T09:57:56;9.40;;;8.60;;
4808;SDS011;2418;49.930;8.606;2023-01-29T10:00:28;10.65;;;8.90;;
4808;SDS011;2418;49.930;8.606;2023-01-29T10:13:30;10.38;;;9.43;;
4808;SDS011;2418;49.930;8.606;2023-01-29T10:16:30;10.38;;;9.40;;
4808;SDS011;2418;49.930;8.606;2023-01-29T10:22:01;10.50;;;9.60;;
4808;SDS011;2418;49.930;8.606;2023-01-29T10:24:36;9.93;;;9.13;;
4808;SDS011;2418;49.930;8.606;2023-01-29T10:27:12;22.38;;;17.48;;
4808;SDS011;2418;49.930;8.606;2023-01-29T10:29:42;10.48;;;9.48;;
4808;SDS011;2418;49.930;8.606;2023-01-29T10:32:18;126.47;;;33.80;;
4808;SDS011;2418;49.930;8.606;2023-01-29T10:35:12;10.30;;;9.30;;
4808;SDS011;2418;49.930;8.606;2023-01-29T10:37:46;9.75;;;8.88;;
4808;SDS011;2418;49.930;8.606;2023-01-29T10:42:57;10.70;;;9.70;;
4808;SDS011;2418;49.930;8.606;2023-01-29T10:45:38;9.20;;;8.60;;
4808;SDS011;2418;49.930;8.606;2023-01-29T10:51:05;9.43;;;8.73;;
4808;SDS011;2418;49.930;8.606;2023-01-29T10:58:53;9.43;;;8.73;;
4808;SDS011;2418;49.930;8.606;2023-01-29T11:01:22;8.60;;;7.93;;
4808;SDS011;2418;49.930;8.606;2023-01-29T11:03:57;9.40;;;8.70;;
4808;SDS011;2418;49.930;8.606;2023-01-29T11:06:30;9.20;;;8.60;;
4808;SDS011;2418;49.930;8.606;2023-01-29T11:09:03;9.43;;;8.63;;
4808;SDS011;2418;49.930;8.606;2023-01-29T11:14:27;9.23;;;8.32;;
4808;SDS011;2418;49.930;8.606;2023-01-29T11:16:57;10.60;;;9.70;;
4808;SDS011;2418;49.930;8.606;2023-01-29T11:19:46;9.85;;;8.95;;
4808;SDS011;2418;49.930;8.606;2023-01-29T11:22:13;10.57;;;9.68;;
4808;SDS011;2418;49.930;8.606;2023-01-29T11:24:44;10.60;;;9.60;;
4808;SDS011;2418;49.930;8.606;2023-01-29T11:27:19;13.43;;;10.65;;
4808;SDS011;2418;49.930;8.606;2023-01-29T11:29:50;9.90;;;9.20;;
4808;SDS011;2418;49.930;8.606;2023-01-29T11:37:38;8.20;;;7.40;;
4808;SDS011;2418;49.930;8.606;2023-01-29T11:42:44;8.82;;;8.10;;
4808;SDS011;2418;49.930;8.606;2023-01-29T11:47:48;9.73;;;8.82;;
4808;SDS011;2418;49.930;8.606;2023-01-29T11:50:19;9.83;;;8.97;;
4808;SDS011;2418;49.930;8.606;2023-01-29T11:52:48;9.38;;;8.60;;
4808;SDS011;2418;49.930;8.606;2023-01-29T11:55:17;9.00;;;8.40;;
4808;SDS011;2418;49.930;8.606;2023-01-29T11:57:50;9.45;;;8.70;;
4808;SDS011;2418;49.930;8.606;2023-01-29T12:03:04;9.75;;;8.85;;
4808;SDS011;2418;49.930;8.606;2023-01-29T12:29:48;9.80;;;8.80;;
4808;SDS011;2418;49.930;8.606;2023-01-29T12:35:02;8.98;;;8.27;;
4808;SDS011;2418;49.930;8.606;2023-01-29T12:40:13;8.45;;;7.85;;
4808;SDS011;2418;49.930;8.606;2023-01-29T12:42:40;8.60;;;7.95;;
4808;SDS011;2418;49.930;8.606;2023-01-29T12:45:14;7.50;;;7.10;;
4808;SDS011;2418;49.930;8.606;2023-01-29T12:47:45;8.25;;;7.65;;
4808;SDS011;2418;49.930;8.606;2023-01-29T12:50:20;8.13;;;7.63;;
4808;SDS011;2418;49.930;8.606;2023-01-29T12:53:25;8.85;;;8.15;;
4808;SDS011;2418;49.930;8.606;2023-01-29T12:55:57;7.55;;;7.15;;
4808;SDS011;2418;49.930;8.606;2023-01-29T12:58:34;9.18;;;8.38;;
4808;SDS011;2418;49.930;8.606;2023-01-29T13:01:07;8.57;;;7.90;;
4808;SDS011;2418;49.930;8.606;2023-01-29T13:04:05;8.75;;;8.05;;
4808;SDS011;2418;49.930;8.606;2023-01-29T13:07:19;8.38;;;7.85;;
4808;SDS011;2418;49.930;8.606;2023-01-29T13:10:14;9.38;;;8.50;;
4808;SDS011;2418;49.930;8.606;2023-01-29T13:12:54;8.88;;;8.10;;
4808;SDS011;2418;49.930;8.606;2023-01-29T13:15:39;8.60;;;8.00;;
4808;SDS011;2418;49.930;8.606;2023-01-29T13:20:54;7.90;;;7.40;;
4808;SDS011;2418;49.930;8.606;2023-01-29T13:23:21;9.50;;;8.60;;
4808;SDS011;2418;49.930;8.606;2023-01-29T13:26:01;10.10;;;9.13;;
4808;SDS011;2418;49.930;8.606;2023-01-29T13:28:27;9.43;;;8.55;;
4808;SDS011;2418;49.930;8.606;2023-01-29T13:31:08;8.30;;;7.80;;
4808;SDS011;2418;49.930;8.606;2023-01-29T13:33:40;8.77;;;7.97;;
4808;SDS011;2418;49.930;8.606;2023-01-29T13:36:09;8.85;;;8.35;;
4808;SDS011;2418;49.930;8.606;2023-01-29T13:38:40;9.40;;;8.80;;
4808;SDS011;2418;49.930;8.606;2023-01-29T13:41:08;10.27;;;9.48;;
4808;SDS011;2418;49.930;8.606;2023-01-29T13:43:39;13.70;;;10.32;;
4808;SDS011;2418;49.930;8.606;2023-01-29T13:46:10;11.45;;;10.45;;
4808;SDS011;2418;49.930;8.606;2023-01-29T13:48:42;13.53;;;12.30;;
4808;SDS011;2418;49.930;8.606;2023-01-29T13:51:11;12.98;;;11.77;;
4808;SDS011;2418;49.930;8.606;2023-01-29T13:53:50;11.17;;;10.07;;
4808;SDS011;2418;49.930;8.606;2023-01-29T13:56:34;9.43;;;8.73;;
4808;SDS011;2418;49.930;8.606;2023-01-29T13:59:20;10.20;;;9.30;;
4808;SDS011;2418;49.930;8.606;2023-01-29T14:02:24;9.35;;;8.43;;
4808;SDS011;2418;49.930;8.606;2023-01-29T14:05:31;8.20;;;7.70;;
4808;SDS011;2418;49.930;8.606;2023-01-29T14:07:56;8.85;;;8.15;;
4808;SDS011;2418;49.930;8.606;2023-01-29T14:10:26;9.07;;;8.32;;
4808;SDS011;2418;49.930;8.606;2023-01-29T14:13:42;9.00;;;8.40;;
4808;SDS011;2418;49.930;8.606;2023-01-29T14:15:44;9.90;;;9.10;;
4808;SDS011;2418;49.930;8.606;2023-01-29T14:18:30;9.15;;;8.00;;
4808;SDS011;2418;49.930;8.606;2023-01-29T14:21:04;9.35;;;8.55;;
4808;SDS011;2418;49.930;8.606;2023-01-29T14:23:43;10.77;;;9.77;;
4808;SDS011;2418;49.930;8.606;2023-01-29T14:29:05;11.25;;;10.05;;
4808;SDS011;2418;49.930;8.606;2023-01-29T14:31:49;10.38;;;9.25;;
4808;SDS011;2418;49.930;8.606;2023-01-29T14:34:35;10.70;;;9.70;;
4808;SDS011;2418;49.930;8.606;2023-01-29T14:39:56;9.80;;;8.80;;
4808;SDS011;2418;49.930;8.606;2023-01-29T14:45:21;9.23;;;8.33;;
4808;SDS011;2418;49.930;8.606;2023-01-29T14:55:39;8.40;;;7.60;;
4808;SDS011;2418;49.930;8.606;2023-01-29T14:58:09;8.43;;;7.78;;
4808;SDS011;2418;49.930;8.606;2023-01-29T15:00:39;9.60;;;8.70;;
4808;SDS011;2418;49.930;8.606;2023-01-29T15:03:28;7.80;;;7.30;;
4808;SDS011;2418;49.930;8.606;2023-01-29T15:05:55;10.40;;;9.40;;
4808;SDS011;2418;49.930;8.606;2023-01-29T15:08:28;10.65;;;9.75;;
4808;SDS011;2418;49.930;8.606;2023-01-29T15:11:02;12.30;;;8.38;;
4808;SDS011;2418;49.930;8.606;2023-01-29T15:13:56;9.23;;;8.32;;
4808;SDS011;2418;49.930;8.606;2023-01-29T15:16:24;10.32;;;9.32;;
4808;SDS011;2418;49.930;8.606;2023-01-29T15:18:54;9.90;;;9.00;;
4808;SDS011;2418;49.930;8.606;2023-01-29T15:21:31;10.57;;;8.88;;
4808;SDS011;2418;49.930;8.606;2023-01-29T15:24:04;10.90;;;9.80;;
4808;SDS011;2418;49.930;8.606;2023-01-29T15:26:30;16.50;;;9.87;;
4808;SDS011;2418;49.930;8.606;2023-01-29T15:28:57;11.60;;;10.50;;
4808;SDS011;2418;49.930;8.606;2023-01-29T15:31:24;11.15;;;8.93;;
4808;SDS011;2418;49.930;8.606;2023-01-29T15:33:52;10.70;;;9.70;;
4808;SDS011;2418;49.930;8.606;2023-01-29T15:36:20;10.95;;;9.95;;
4808;SDS011;2418;49.930;8.606;2023-01-29T15:38:48;11.88;;;10.25;;
4808;SDS011;2418;49.930;8.606;2023-01-29T15:41:18;13.13;;;10.63;;
4808;SDS011;2418;49.930;8.606;2023-01-29T15:43:46;11.30;;;10.20;;
4808;SDS011;2418;49.930;8.606;2023-01-29T15:46:19;11.18;;;9.98;;
4808;SDS011;2418;49.930;8.606;2023-01-29T15:48:50;11.38;;;9.75;;
4808;SDS011;2418;49.930;8.606;2023-01-29T15:51:19;20.13;;;14.03;;
4808;SDS011;2418;49.930;8.606;2023-01-29T15:53:52;40.72;;;23.48;;
4808;SDS011;2418;49.930;8.606;2023-01-29T15:56:20;51.95;;;23.92;;
4808;SDS011;2418;49.930;8.606;2023-01-29T15:58:52;22.50;;;15.00;;
4808;SDS011;2418;49.930;8.606;2023-01-29T16:01:18;27.33;;;17.23;;
4808;SDS011;2418;49.930;8.606;2023-01-29T16:03:44;46.35;;;21.58;;
4808;SDS011;2418;49.930;8.606;2023-01-29T16:06:13;61.38;;;31.48;;
4808;SDS011;2418;49.930;8.606;2023-01-29T16:08:39;33.70;;;22.70;;
4808;SDS011;2418;49.930;8.606;2023-01-29T16:11:06;23.63;;;17.65;;
4808;SDS011;2418;49.930;8.606;2023-01-29T16:13:34;27.00;;;17.92;;
4808;SDS011;2418;49.930;8.606;2023-01-29T16:16:04;40.85;;;25.98;;
4808;SDS011;2418;49.930;8.606;2023-01-29T16:18:32;36.60;;;25.70;;
4808;SDS011;2418;49.930;8.606;2023-01-29T16:21:02;35.72;;;22.58;;
4808;SDS011;2418;49.930;8.606;2023-01-29T16:23:33;36.08;;;24.17;;
4808;SDS011;2418;49.930;8.606;2023-01-29T16:26:01;25.70;;;17.20;;
4808;SDS011;2418;49.930;8.606;2023-01-29T16:28:27;24.42;;;16.88;;
4808;SDS011;2418;49.930;8.606;2023-01-29T16:30:55;28.50;;;17.70;;
4808;SDS011;2418;49.930;8.606;2023-01-29T16:33:22;21.08;;;16.90;;
4808;SDS011;2418;49.930;8.606;2023-01-29T16:35:52;27.52;;;16.33;;
4808;SDS011;2418;49.930;8.606;2023-01-29T16:38:29;27.10;;;17.13;;
4808;SDS011;2418;49.930;8.606;2023-01-29T16:43:43;25.98;;;17.90;;
4808;SDS011;2418;49.930;8.606;2023-01-29T16:46:15;25.35;;;17.80;;
4808;SDS011;2418;49.930;8.606;2023-01-29T16:48:42;23.95;;;15.88;;
4808;SDS011;2418;49.930;8.606;2023-01-29T16:51:30;27.00;;;17.90;;
4808;SDS011;2418;49.930;8.606;2023-01-29T16:53:56;23.70;;;17.42;;
4808;SDS011;2418;49.930;8.606;2023-01-29T16:56:23;26.35;;;17.38;;
4808;SDS011;2418;49.930;8.606;2023-01-29T16:58:52;26.17;;;17.30;;
4808;SDS011;2418;49.930;8.606;2023-01-29T17:01:18;27.85;;;17.17;;
4808;SDS011;2418;49.930;8.606;2023-01-29T17:03:48;22.83;;;16.63;;
4808;SDS011;2418;49.930;8.606;2023-01-29T17:06:19;25.23;;;17.52;;
4808;SDS011;2418;49.930;8.606;2023-01-29T17:08:45;25.52;;;17.67;;
4808;SDS011;2418;49.930;8.606;2023-01-29T17:11:12;29.60;;;19.77;;
4808;SDS011;2418;49.930;8.606;2023-01-29T17:13:46;26.65;;;19.08;;
4808;SDS011;2418;49.930;8.606;2023-01-29T17:16:19;29.83;;;19.40;;
4808;SDS011;2418;49.930;8.606;2023-01-29T17:18:49;29.80;;;21.08;;
4808;SDS011;2418;49.930;8.606;2023-01-29T17:21:15;29.70;;;21.03;;
4808;SDS011;2418;49.930;8.606;2023-01-29T17:23:41;34.75;;;20.95;;
4808;SDS011;2418;49.930;8.606;2023-01-29T17:26:07;36.40;;;22.98;;
4808;SDS011;2418;49.930;8.606;2023-01-29T17:28:35;37.85;;;23.13;;
4808;SDS011;2418;49.930;8.606;2023-01-29T17:31:01;43.23;;;24.37;;
4808;SDS011;2418;49.930;8.606;2023-01-29T17:33:27;40.23;;;24.50;;
4808;SDS011;2418;49.930;8.606;2023-01-29T17:35:52;41.73;;;24.87;;
4808;SDS011;2418;49.930;8.606;2023-01-29T17:38:18;48.00;;;29.83;;
4808;SDS011;2418;49.930;8.606;2023-01-29T17:40:52;42.35;;;27.15;;
4808;SDS011;2418;49.930;8.606;2023-01-29T17:43:28;41.17;;;25.42;;
4808;SDS011;2418;49.930;8.606;2023-01-29T17:45:54;56.65;;;37.85;;
4808;SDS011;2418;49.930;8.606;2023-01-29T17:48:24;51.40;;;32.25;;